Berwyn, New York
Current Conditions -  °F | °C
As of 1:54 AM on Sunday 23 Nov 2014 (Local Time) from KSYR Reporting Station
Light Rain Light Rain  
Wind Chill: 42°   Ceiling: 3500
Heat Index: 47°   Visibility: 10mi
Dew Point: 41°   Wind: 12mph
Humidity: 80%   Direction: 210°SSW
Pressure: 30.02"   Gusts: NA
Location:  42.8894°N, 76.1084°W
Report Text: KSYR 230654Z 21010KT 10SM -RA OVC035 08/05 A3002 RMK AO2 SLP164 P0002 T00830050 $
Loading
Personal Weather Stations






























Interactive Weather Map New forecast layout! Learn more

10-Day Weather Forecast

Advertisements
Track Severe Weather on mobile